sensor_id;sensor_type;location;lat;lon;timestamp;temperature;humidity
46085;DHT22;31823;47.032;8.310;2023-02-20T00:02:05;7.30;99.90
46085;DHT22;31823;47.032;8.310;2023-02-20T00:04:30;7.30;99.90
46085;DHT22;31823;47.032;8.310;2023-02-20T00:06:56;7.30;99.90
46085;DHT22;31823;47.032;8.310;2023-02-20T00:09:22;7.40;99.90
46085;DHT22;31823;47.032;8.310;2023-02-20T00:11:48;7.20;99.90
46085;DHT22;31823;47.032;8.310;2023-02-20T00:14:13;7.20;99.90
46085;DHT22;31823;47.032;8.310;2023-02-20T00:16:39;7.20;99.90
46085;DHT22;31823;47.032;8.310;2023-02-20T00:19:04;7.20;99.90
46085;DHT22;31823;47.032;8.310;2023-02-20T00:21:30;7.20;99.90
46085;DHT22;31823;47.032;8.310;2023-02-20T00:23:55;7.20;99.90
46085;DHT22;31823;47.032;8.310;2023-02-20T00:26:21;7.20;99.90
46085;DHT22;31823;47.032;8.310;2023-02-20T00:28:46;7.20;99.90
46085;DHT22;31823;47.032;8.310;2023-02-20T00:31:16;7.10;99.90
46085;DHT22;31823;47.032;8.310;2023-02-20T00:33:44;7.10;99.90
46085;DHT22;31823;47.032;8.310;2023-02-20T00:36:18;7.10;99.90
46085;DHT22;31823;47.032;8.310;2023-02-20T00:38:44;7.00;99.90
46085;DHT22;31823;47.032;8.310;2023-02-20T00:41:12;7.00;99.90
46085;DHT22;31823;47.032;8.310;2023-02-20T00:43:39;6.90;99.90
46085;DHT22;31823;47.032;8.310;2023-02-20T00:46:05;6.80;99.90
46085;DHT22;31823;47.032;8.310;2023-02-20T00:48:30;6.70;99.90
46085;DHT22;31823;47.032;8.310;2023-02-20T00:50:56;6.70;99.90
46085;DHT22;31823;47.032;8.310;2023-02-20T00:53:21;6.60;99.90
46085;DHT22;31823;47.032;8.310;2023-02-20T00:55:47;6.60;99.90
46085;DHT22;31823;47.032;8.310;2023-02-20T00:58:12;6.50;99.90
46085;DHT22;31823;47.032;8.310;2023-02-20T01:00:38;6.50;99.90
46085;DHT22;31823;47.032;8.310;2023-02-20T01:03:03;6.50;99.90
46085;DHT22;31823;47.032;8.310;2023-02-20T01:05:29;6.50;99.90
46085;DHT22;31823;47.032;8.310;2023-02-20T01:07:54;6.50;99.90
46085;DHT22;31823;47.032;8.310;2023-02-20T01:10:20;6.50;99.90
46085;DHT22;31823;47.032;8.310;2023-02-20T01:12:45;6.50;99.90
46085;DHT22;31823;47.032;8.310;2023-02-20T01:15:13;6.50;99.90
46085;DHT22;31823;47.032;8.310;2023-02-20T01:17:39;6.50;99.90
46085;DHT22;31823;47.032;8.310;2023-02-20T01:20:05;6.50;99.90
46085;DHT22;31823;47.032;8.310;2023-02-20T01:22:31;6.50;99.90
46085;DHT22;31823;47.032;8.310;2023-02-20T01:24:57;6.50;99.90
46085;DHT22;31823;47.032;8.310;2023-02-20T01:27:22;6.50;99.90
46085;DHT22;31823;47.032;8.310;2023-02-20T01:29:48;6.50;99.90
46085;DHT22;31823;47.032;8.310;2023-02-20T01:32:13;6.60;99.90
46085;DHT22;31823;47.032;8.310;2023-02-20T01:34:39;6.60;99.90
46085;DHT22;31823;47.032;8.310;2023-02-20T01:37:05;6.60;99.90
46085;DHT22;31823;47.032;8.310;2023-02-20T01:39:30;6.60;99.90
46085;DHT22;31823;47.032;8.310;2023-02-20T01:42:01;6.60;99.90
46085;DHT22;31823;47.032;8.310;2023-02-20T01:44:36;6.60;99.90
46085;DHT22;31823;47.032;8.310;2023-02-20T01:47:06;6.60;99.90
46085;DHT22;31823;47.032;8.310;2023-02-20T01:49:47;6.50;99.90
46085;DHT22;31823;47.032;8.310;2023-02-20T01:54:59;6.60;99.90
46085;DHT22;31823;47.032;8.310;2023-02-20T01:57:27;6.60;99.90
46085;DHT22;31823;47.032;8.310;2023-02-20T01:59:58;6.60;99.90
46085;DHT22;31823;47.032;8.310;2023-02-20T02:02:30;6.60;99.90
46085;DHT22;31823;47.032;8.310;2023-02-20T02:04:57;6.60;99.90
46085;DHT22;31823;47.032;8.310;2023-02-20T02:07:23;6.60;99.90
46085;DHT22;31823;47.032;8.310;2023-02-20T02:09:52;6.60;99.90
46085;DHT22;31823;47.032;8.310;2023-02-20T02:12:21;6.60;99.90
46085;DHT22;31823;47.032;8.310;2023-02-20T02:14:47;6.60;99.90
46085;DHT22;31823;47.032;8.310;2023-02-20T02:17:36;6.50;99.90
46085;DHT22;31823;47.032;8.310;2023-02-20T02:28:43;6.30;99.90
46085;DHT22;31823;47.032;8.310;2023-02-20T02:37:02;6.20;99.90
46085;DHT22;31823;47.032;8.310;2023-02-20T02:48:10;6.10;99.90
46085;DHT22;31823;47.032;8.310;2023-02-20T02:50:40;6.10;99.90
46085;DHT22;31823;47.032;8.310;2023-02-20T02:53:08;6.00;99.90
46085;DHT22;31823;47.032;8.310;2023-02-20T02:55:35;5.90;99.90
46085;DHT22;31823;47.032;8.310;2023-02-20T02:58:02;5.80;99.90
46085;DHT22;31823;47.032;8.310;2023-02-20T03:00:41;5.80;99.90
46085;DHT22;31823;47.032;8.310;2023-02-20T03:03:22;5.80;99.90
46085;DHT22;31823;47.032;8.310;2023-02-20T03:05:55;5.70;99.90
46085;DHT22;31823;47.032;8.310;2023-02-20T03:08:25;5.60;99.90
46085;DHT22;31823;47.032;8.310;2023-02-20T03:11:03;5.50;99.90
46085;DHT22;31823;47.032;8.310;2023-02-20T03:13:32;5.50;99.90
46085;DHT22;31823;47.032;8.310;2023-02-20T03:16:20;5.40;99.90
46085;DHT22;31823;47.032;8.310;2023-02-20T03:18:47;5.30;99.90
46085;DHT22;31823;47.032;8.310;2023-02-20T03:21:16;5.30;99.90
46085;DHT22;31823;47.032;8.310;2023-02-20T03:23:47;5.20;99.90
46085;DHT22;31823;47.032;8.310;2023-02-20T03:26:22;5.10;99.90
46085;DHT22;31823;47.032;8.310;2023-02-20T03:28:58;5.00;99.90
46085;DHT22;31823;47.032;8.310;2023-02-20T03:31:39;4.90;99.90
46085;DHT22;31823;47.032;8.310;2023-02-20T03:34:42;4.90;99.90
46085;DHT22;31823;47.032;8.310;2023-02-20T03:37:21;4.80;99.90
46085;DHT22;31823;47.032;8.310;2023-02-20T03:40:11;4.80;99.90
46085;DHT22;31823;47.032;8.310;2023-02-20T03:43:00;4.80;99.90
46085;DHT22;31823;47.032;8.310;2023-02-20T03:45:46;4.80;99.90
46085;DHT22;31823;47.032;8.310;2023-02-20T03:48:27;4.60;99.90
46085;DHT22;31823;47.032;8.310;2023-02-20T03:50:54;4.60;99.90
46085;DHT22;31823;47.032;8.310;2023-02-20T03:53:40;4.50;99.90
46085;DHT22;31823;47.032;8.310;2023-02-20T03:56:11;4.60;99.90
46085;DHT22;31823;47.032;8.310;2023-02-20T03:58:41;4.50;99.90
46085;DHT22;31823;47.032;8.310;2023-02-20T04:01:09;4.50;99.90
46085;DHT22;31823;47.032;8.310;2023-02-20T04:03:39;4.50;99.90
46085;DHT22;31823;47.032;8.310;2023-02-20T04:06:08;4.40;99.90
46085;DHT22;31823;47.032;8.310;2023-02-20T04:11:27;4.30;99.90
46085;DHT22;31823;47.032;8.310;2023-02-20T04:13:53;4.30;99.90
46085;DHT22;31823;47.032;8.310;2023-02-20T04:16:20;4.20;99.90
46085;DHT22;31823;47.032;8.310;2023-02-20T04:18:46;4.30;99.90
46085;DHT22;31823;47.032;8.310;2023-02-20T04:21:37;4.20;99.90
46085;DHT22;31823;47.032;8.310;2023-02-20T04:24:14;4.20;99.90
46085;DHT22;31823;47.032;8.310;2023-02-20T04:26:41;4.10;99.90
46085;DHT22;31823;47.032;8.310;2023-02-20T04:29:07;4.00;99.90
46085;DHT22;31823;47.032;8.310;2023-02-20T04:31:32;4.10;99.90
46085;DHT22;31823;47.032;8.310;2023-02-20T04:33:58;4.10;99.90
46085;DHT22;31823;47.032;8.310;2023-02-20T04:36:24;4.10;99.90
46085;DHT22;31823;47.032;8.310;2023-02-20T04:38:50;4.10;99.90
46085;DHT22;31823;47.032;8.310;2023-02-20T04:41:16;4.00;99.90
46085;DHT22;31823;47.032;8.310;2023-02-20T04:43:41;3.90;99.90
46085;DHT22;31823;47.032;8.310;2023-02-20T04:46:07;3.90;99.90
46085;DHT22;31823;47.032;8.310;2023-02-20T04:48:32;3.80;99.90
46085;DHT22;31823;47.032;8.310;2023-02-20T04:50:58;3.80;99.90
46085;DHT22;31823;47.032;8.310;2023-02-20T04:53:23;3.80;99.90
46085;DHT22;31823;47.032;8.310;2023-02-20T04:55:49;3.80;99.90
46085;DHT22;31823;47.032;8.310;2023-02-20T04:58:15;3.80;99.90
46085;DHT22;31823;47.032;8.310;2023-02-20T05:00:40;3.80;99.90
46085;DHT22;31823;47.032;8.310;2023-02-20T05:03:06;3.90;99.90
46085;DHT22;31823;47.032;8.310;2023-02-20T05:05:31;3.80;99.90
46085;DHT22;31823;47.032;8.310;2023-02-20T05:08:03;3.80;99.90
46085;DHT22;31823;47.032;8.310;2023-02-20T05:10:30;3.90;99.90
46085;DHT22;31823;47.032;8.310;2023-02-20T05:12:56;3.80;99.90
46085;DHT22;31823;47.032;8.310;2023-02-20T05:15:22;3.80;99.90
46085;DHT22;31823;47.032;8.310;2023-02-20T05:17:48;3.80;99.90
46085;DHT22;31823;47.032;8.310;2023-02-20T05:20:14;3.80;99.90
46085;DHT22;31823;47.032;8.310;2023-02-20T05:22:40;3.70;99.90
46085;DHT22;31823;47.032;8.310;2023-02-20T05:25:06;3.90;99.90
46085;DHT22;31823;47.032;8.310;2023-02-20T05:27:32;3.90;99.90
46085;DHT22;31823;47.032;8.310;2023-02-20T05:29:59;3.70;99.90
46085;DHT22;31823;47.032;8.310;2023-02-20T05:32:27;3.70;99.90
46085;DHT22;31823;47.032;8.310;2023-02-20T05:34:53;3.70;99.90
46085;DHT22;31823;47.032;8.310;2023-02-20T05:37:19;3.60;99.90
46085;DHT22;31823;47.032;8.310;2023-02-20T05:39:46;3.50;99.90
46085;DHT22;31823;47.032;8.310;2023-02-20T05:42:12;3.60;99.90
46085;DHT22;31823;47.032;8.310;2023-02-20T05:44:38;3.50;99.90
46085;DHT22;31823;47.032;8.310;2023-02-20T05:47:04;3.50;99.90
46085;DHT22;31823;47.032;8.310;2023-02-20T05:49:30;3.50;99.90
46085;DHT22;31823;47.032;8.310;2023-02-20T05:51:57;3.60;99.90
46085;DHT22;31823;47.032;8.310;2023-02-20T05:54:23;3.50;99.90
46085;DHT22;31823;47.032;8.310;2023-02-20T05:56:49;3.50;99.90
46085;DHT22;31823;47.032;8.310;2023-02-20T05:59:18;3.40;99.90
46085;DHT22;31823;47.032;8.310;2023-02-20T06:01:46;3.30;99.90
46085;DHT22;31823;47.032;8.310;2023-02-20T06:04:12;3.40;99.90
46085;DHT22;31823;47.032;8.310;2023-02-20T06:06:39;3.40;99.90
46085;DHT22;31823;47.032;8.310;2023-02-20T06:09:07;3.30;99.90
46085;DHT22;31823;47.032;8.310;2023-02-20T06:11:33;3.30;99.90
46085;DHT22;31823;47.032;8.310;2023-02-20T06:14:00;3.30;99.90
46085;DHT22;31823;47.032;8.310;2023-02-20T06:16:28;3.40;99.90
46085;DHT22;31823;47.032;8.310;2023-02-20T06:18:55;3.40;99.90
46085;DHT22;31823;47.032;8.310;2023-02-20T06:21:22;3.40;99.90
46085;DHT22;31823;47.032;8.310;2023-02-20T06:23:48;3.30;99.90
46085;DHT22;31823;47.032;8.310;2023-02-20T06:26:16;3.20;99.90
46085;DHT22;31823;47.032;8.310;2023-02-20T06:28:42;3.30;99.90
46085;DHT22;31823;47.032;8.310;2023-02-20T06:31:08;3.30;99.90
46085;DHT22;31823;47.032;8.310;2023-02-20T06:33:34;3.30;99.90
46085;DHT22;31823;47.032;8.310;2023-02-20T06:36:00;3.30;99.90
46085;DHT22;31823;47.032;8.310;2023-02-20T06:38:27;3.20;99.90
46085;DHT22;31823;47.032;8.310;2023-02-20T06:40:52;3.20;99.90
46085;DHT22;31823;47.032;8.310;2023-02-20T06:43:18;3.30;99.90
46085;DHT22;31823;47.032;8.310;2023-02-20T06:45:44;3.20;99.90
46085;DHT22;31823;47.032;8.310;2023-02-20T06:48:13;3.20;99.90
46085;DHT22;31823;47.032;8.310;2023-02-20T06:50:40;3.20;99.90
46085;DHT22;31823;47.032;8.310;2023-02-20T06:53:06;3.30;99.90
46085;DHT22;31823;47.032;8.310;2023-02-20T06:55:32;3.20;99.90
46085;DHT22;31823;47.032;8.310;2023-02-20T06:57:58;3.30;99.90
46085;DHT22;31823;47.032;8.310;2023-02-20T07:00:24;3.40;99.90
46085;DHT22;31823;47.032;8.310;2023-02-20T07:02:49;3.30;99.90
46085;DHT22;31823;47.032;8.310;2023-02-20T07:05:15;3.30;99.90
46085;DHT22;31823;47.032;8.310;2023-02-20T07:07:41;3.30;99.90
46085;DHT22;31823;47.032;8.310;2023-02-20T07:10:06;3.40;99.90
46085;DHT22;31823;47.032;8.310;2023-02-20T07:12:33;3.30;99.90
46085;DHT22;31823;47.032;8.310;2023-02-20T07:15:02;3.30;99.90
46085;DHT22;31823;47.032;8.310;2023-02-20T07:17:27;3.40;99.90
46085;DHT22;31823;47.032;8.310;2023-02-20T07:19:53;3.40;99.90
46085;DHT22;31823;47.032;8.310;2023-02-20T07:22:18;3.50;99.90
46085;DHT22;31823;47.032;8.310;2023-02-20T07:24:49;3.50;99.90
46085;DHT22;31823;47.032;8.310;2023-02-20T07:27:14;3.50;99.90
46085;DHT22;31823;47.032;8.310;2023-02-20T07:29:40;3.60;99.90
46085;DHT22;31823;47.032;8.310;2023-02-20T07:32:09;3.60;99.90
46085;DHT22;31823;47.032;8.310;2023-02-20T07:34:34;3.60;99.90
46085;DHT22;31823;47.032;8.310;2023-02-20T07:37:00;3.60;99.90
46085;DHT22;31823;47.032;8.310;2023-02-20T07:39:25;3.70;99.90
46085;DHT22;31823;47.032;8.310;2023-02-20T07:41:51;3.80;99.90
46085;DHT22;31823;47.032;8.310;2023-02-20T07:44:17;3.80;99.90
46085;DHT22;31823;47.032;8.310;2023-02-20T07:46:42;3.90;99.90
46085;DHT22;31823;47.032;8.310;2023-02-20T07:49:08;3.90;99.90
46085;DHT22;31823;47.032;8.310;2023-02-20T07:51:33;4.00;99.90
46085;DHT22;31823;47.032;8.310;2023-02-20T07:53:59;3.90;99.90
46085;DHT22;31823;47.032;8.310;2023-02-20T07:56:25;3.90;99.90
46085;DHT22;31823;47.032;8.310;2023-02-20T07:58:51;3.90;99.90
46085;DHT22;31823;47.032;8.310;2023-02-20T08:01:17;4.00;99.90
46085;DHT22;31823;47.032;8.310;2023-02-20T08:03:44;4.10;99.90
46085;DHT22;31823;47.032;8.310;2023-02-20T08:06:09;4.10;99.90
46085;DHT22;31823;47.032;8.310;2023-02-20T08:08:35;4.10;99.90
46085;DHT22;31823;47.032;8.310;2023-02-20T08:11:01;4.20;99.90
46085;DHT22;31823;47.032;8.310;2023-02-20T08:13:26;4.30;99.90
46085;DHT22;31823;47.032;8.310;2023-02-20T08:15:52;4.40;99.90
46085;DHT22;31823;47.032;8.310;2023-02-20T08:18:18;4.50;99.90
46085;DHT22;31823;47.032;8.310;2023-02-20T08:20:43;4.50;99.90
46085;DHT22;31823;47.032;8.310;2023-02-20T08:23:16;4.60;99.90
46085;DHT22;31823;47.032;8.310;2023-02-20T08:25:42;4.90;99.90
46085;DHT22;31823;47.032;8.310;2023-02-20T08:28:08;5.50;99.90
46085;DHT22;31823;47.032;8.310;2023-02-20T08:30:33;6.00;99.90
46085;DHT22;31823;47.032;8.310;2023-02-20T08:32:59;6.50;99.90
46085;DHT22;31823;47.032;8.310;2023-02-20T08:35:26;6.80;99.90
46085;DHT22;31823;47.032;8.310;2023-02-20T08:37:52;6.80;99.90
46085;DHT22;31823;47.032;8.310;2023-02-20T08:40:17;7.20;99.90
46085;DHT22;31823;47.032;8.310;2023-02-20T08:42:43;7.90;99.90
46085;DHT22;31823;47.032;8.310;2023-02-20T08:45:09;8.80;99.90
46085;DHT22;31823;47.032;8.310;2023-02-20T08:47:35;7.80;99.90
46085;DHT22;31823;47.032;8.310;2023-02-20T08:50:00;7.70;99.90
46085;DHT22;31823;47.032;8.310;2023-02-20T08:52:26;8.60;99.90
46085;DHT22;31823;47.032;8.310;2023-02-20T08:54:52;10.70;99.90
46085;DHT22;31823;47.032;8.310;2023-02-20T08:57:18;10.90;99.90
46085;DHT22;31823;47.032;8.310;2023-02-20T08:59:44;11.40;99.90
46085;DHT22;31823;47.032;8.310;2023-02-20T09:02:17;11.00;99.90
46085;DHT22;31823;47.032;8.310;2023-02-20T09:04:44;12.50;99.90
46085;DHT22;31823;47.032;8.310;2023-02-20T09:07:11;14.10;99.90
46085;DHT22;31823;47.032;8.310;2023-02-20T09:09:36;15.50;99.40
46085;DHT22;31823;47.032;8.310;2023-02-20T09:12:02;14.00;99.80
46085;DHT22;31823;47.032;8.310;2023-02-20T09:14:27;11.40;99.90
46085;DHT22;31823;47.032;8.310;2023-02-20T09:16:53;10.60;99.90
46085;DHT22;31823;47.032;8.310;2023-02-20T09:19:19;11.00;99.90
46085;DHT22;31823;47.032;8.310;2023-02-20T09:21:46;12.50;99.90
46085;DHT22;31823;47.032;8.310;2023-02-20T09:24:12;12.00;99.90
46085;DHT22;31823;47.032;8.310;2023-02-20T09:26:38;13.20;99.90
46085;DHT22;31823;47.032;8.310;2023-02-20T09:29:03;15.00;99.30
46085;DHT22;31823;47.032;8.310;2023-02-20T09:31:29;16.70;95.50
46085;DHT22;31823;47.032;8.310;2023-02-20T09:33:54;16.90;95.50
46085;DHT22;31823;47.032;8.310;2023-02-20T09:36:20;15.90;97.60
46085;DHT22;31823;47.032;8.310;2023-02-20T09:38:45;15.10;96.40
46085;DHT22;31823;47.032;8.310;2023-02-20T09:46:47;14.30;99.90
46085;DHT22;31823;47.032;8.310;2023-02-20T09:49:26;14.20;99.80
46085;DHT22;31823;47.032;8.310;2023-02-20T09:52:00;13.20;99.90
46085;DHT22;31823;47.032;8.310;2023-02-20T09:54:40;14.20;99.90
46085;DHT22;31823;47.032;8.310;2023-02-20T09:57:13;13.80;99.60
46085;DHT22;31823;47.032;8.310;2023-02-20T09:59:42;14.80;99.40
46085;DHT22;31823;47.032;8.310;2023-02-20T10:02:22;15.80;97.60
46085;DHT22;31823;47.032;8.310;2023-02-20T10:04:51;17.10;96.10
46085;DHT22;31823;47.032;8.310;2023-02-20T10:07:26;17.90;94.40
46085;DHT22;31823;47.032;8.310;2023-02-20T10:09:53;16.00;96.20
46085;DHT22;31823;47.032;8.310;2023-02-20T10:12:33;15.90;96.20
46085;DHT22;31823;47.032;8.310;2023-02-20T10:26:04;14.10;98.20
46085;DHT22;31823;47.032;8.310;2023-02-20T10:28:32;14.10;98.60
46085;DHT22;31823;47.032;8.310;2023-02-20T10:31:25;13.80;99.20
46085;DHT22;31823;47.032;8.310;2023-02-20T10:33:49;12.60;99.70
46085;DHT22;31823;47.032;8.310;2023-02-20T10:39:08;12.00;99.90
46085;DHT22;31823;47.032;8.310;2023-02-20T10:41:50;12.20;99.90
46085;DHT22;31823;47.032;8.310;2023-02-20T10:44:43;12.10;99.90
46085;DHT22;31823;47.032;8.310;2023-02-20T10:47:15;12.10;99.90
46085;DHT22;31823;47.032;8.310;2023-02-20T10:50:04;12.00;99.90
46085;DHT22;31823;47.032;8.310;2023-02-20T10:52:58;11.50;99.90
46085;DHT22;31823;47.032;8.310;2023-02-20T11:00:54;11.90;99.90
46085;DHT22;31823;47.032;8.310;2023-02-20T11:06:13;14.10;98.80
46085;DHT22;31823;47.032;8.310;2023-02-20T11:08:40;13.70;99.40
46085;DHT22;31823;47.032;8.310;2023-02-20T11:11:33;13.50;99.10
46085;DHT22;31823;47.032;8.310;2023-02-20T11:16:40;14.90;97.20
46085;DHT22;31823;47.032;8.310;2023-02-20T11:19:18;17.70;95.10
46085;DHT22;31823;47.032;8.310;2023-02-20T11:21:47;17.50;93.60
46085;DHT22;31823;47.032;8.310;2023-02-20T11:26:43;18.30;92.10
46085;DHT22;31823;47.032;8.310;2023-02-20T11:29:11;17.70;92.10
46085;DHT22;31823;47.032;8.310;2023-02-20T11:31:40;16.60;92.70
46085;DHT22;31823;47.032;8.310;2023-02-20T11:34:14;15.40;94.90
46085;DHT22;31823;47.032;8.310;2023-02-20T11:36:46;14.70;95.90
46085;DHT22;31823;47.032;8.310;2023-02-20T11:41:44;12.10;98.30
46085;DHT22;31823;47.032;8.310;2023-02-20T11:46:38;12.90;98.90
46085;DHT22;31823;47.032;8.310;2023-02-20T11:49:09;13.20;98.40
46085;DHT22;31823;47.032;8.310;2023-02-20T11:51:44;14.30;97.50
46085;DHT22;31823;47.032;8.310;2023-02-20T11:54:22;13.70;97.30
46085;DHT22;31823;47.032;8.310;2023-02-20T11:57:01;12.30;99.40
46085;DHT22;31823;47.032;8.310;2023-02-20T11:59:43;12.10;99.40
46085;DHT22;31823;47.032;8.310;2023-02-20T12:02:29;13.80;98.20
46085;DHT22;31823;47.032;8.310;2023-02-20T12:05:03;13.10;97.60
46085;DHT22;31823;47.032;8.310;2023-02-20T12:07:36;13.40;98.00
46085;DHT22;31823;47.032;8.310;2023-02-20T12:12:37;14.10;97.80
46085;DHT22;31823;47.032;8.310;2023-02-20T12:15:11;14.50;97.80
46085;DHT22;31823;47.032;8.310;2023-02-20T12:20:33;13.60;98.80
46085;DHT22;31823;47.032;8.310;2023-02-20T12:28:28;15.40;96.20
46085;DHT22;31823;47.032;8.310;2023-02-20T12:31:31;14.40;96.40
46085;DHT22;31823;47.032;8.310;2023-02-20T12:47:29;13.60;98.40
46085;DHT22;31823;47.032;8.310;2023-02-20T12:50:18;14.00;98.20
46085;DHT22;31823;47.032;8.310;2023-02-20T12:58:15;14.20;97.10
46085;DHT22;31823;47.032;8.310;2023-02-20T13:00:51;14.30;96.60
46085;DHT22;31823;47.032;8.310;2023-02-20T13:03:24;14.20;96.40
46085;DHT22;31823;47.032;8.310;2023-02-20T13:05:52;14.40;96.50
46085;DHT22;31823;47.032;8.310;2023-02-20T13:10:56;15.80;94.90
46085;DHT22;31823;47.032;8.310;2023-02-20T13:13:25;18.30;92.90
46085;DHT22;31823;47.032;8.310;2023-02-20T13:16:03;18.70;92.10
46085;DHT22;31823;47.032;8.310;2023-02-20T13:21:18;21.70;85.00
46085;DHT22;31823;47.032;8.310;2023-02-20T13:23:45;22.50;80.90
46085;DHT22;31823;47.032;8.310;2023-02-20T13:29:17;21.50;80.10
46085;DHT22;31823;47.032;8.310;2023-02-20T13:31:47;23.10;76.40
46085;DHT22;31823;47.032;8.310;2023-02-20T13:36:49;25.10;72.80
46085;DHT22;31823;47.032;8.310;2023-02-20T13:58:01;24.20;68.30
46085;DHT22;31823;47.032;8.310;2023-02-20T14:03:30;22.80;69.70
46085;DHT22;31823;47.032;8.310;2023-02-20T14:06:12;23.40;69.40
46085;DHT22;31823;47.032;8.310;2023-02-20T14:08:39;23.70;67.00
46085;DHT22;31823;47.032;8.310;2023-02-20T14:13:33;23.10;69.90
46085;DHT22;31823;47.032;8.310;2023-02-20T14:15:59;22.10;71.90
46085;DHT22;31823;47.032;8.310;2023-02-20T14:18:33;21.40;71.50
46085;DHT22;31823;47.032;8.310;2023-02-20T14:21:18;21.40;72.60
46085;DHT22;31823;47.032;8.310;2023-02-20T14:23:46;22.60;70.90
46085;DHT22;31823;47.032;8.310;2023-02-20T14:28:53;21.10;72.40
46085;DHT22;31823;47.032;8.310;2023-02-20T14:33:45;21.50;71.60
46085;DHT22;31823;47.032;8.310;2023-02-20T14:39:23;20.60;74.00
46085;DHT22;31823;47.032;8.310;2023-02-20T14:42:02;21.00;72.90
46085;DHT22;31823;47.032;8.310;2023-02-20T14:44:29;20.20;73.40
46085;DHT22;31823;47.032;8.310;2023-02-20T14:47:16;21.00;74.00
46085;DHT22;31823;47.032;8.310;2023-02-20T14:49:43;20.30;73.90
46085;DHT22;31823;47.032;8.310;2023-02-20T14:54:40;20.70;73.60
46085;DHT22;31823;47.032;8.310;2023-02-20T14:57:07;22.00;71.00
46085;DHT22;31823;47.032;8.310;2023-02-20T14:59:34;20.70;72.30
46085;DHT22;31823;47.032;8.310;2023-02-20T15:02:20;20.70;73.20
46085;DHT22;31823;47.032;8.310;2023-02-20T15:05:04;19.30;74.80
46085;DHT22;31823;47.032;8.310;2023-02-20T15:07:31;18.30;77.80
46085;DHT22;31823;47.032;8.310;2023-02-20T15:09:59;19.30;76.50
46085;DHT22;31823;47.032;8.310;2023-02-20T15:12:40;20.60;74.20
46085;DHT22;31823;47.032;8.310;2023-02-20T15:15:09;20.10;74.20
46085;DHT22;31823;47.032;8.310;2023-02-20T15:17:40;20.40;74.50
46085;DHT22;31823;47.032;8.310;2023-02-20T15:20:33;18.20;77.00
46085;DHT22;31823;47.032;8.310;2023-02-20T15:23:18;17.80;79.40
46085;DHT22;31823;47.032;8.310;2023-02-20T15:25:45;19.30;76.70
46085;DHT22;31823;47.032;8.310;2023-02-20T15:28:12;20.40;73.90
46085;DHT22;31823;47.032;8.310;2023-02-20T15:33:50;17.10;80.90
46085;DHT22;31823;47.032;8.310;2023-02-20T15:36:20;17.00;81.50
46085;DHT22;31823;47.032;8.310;2023-02-20T15:38:47;18.20;77.90
46085;DHT22;31823;47.032;8.310;2023-02-20T15:41:12;18.60;77.80
46085;DHT22;31823;47.032;8.310;2023-02-20T15:43:38;17.70;78.20
46085;DHT22;31823;47.032;8.310;2023-02-20T15:46:04;16.80;81.10
46085;DHT22;31823;47.032;8.310;2023-02-20T15:48:29;17.10;80.40
46085;DHT22;31823;47.032;8.310;2023-02-20T15:50:55;15.90;83.80
46085;DHT22;31823;47.032;8.310;2023-02-20T15:53:26;14.60;87.80
46085;DHT22;31823;47.032;8.310;2023-02-20T15:55:53;14.20;90.20
46085;DHT22;31823;47.032;8.310;2023-02-20T15:58:27;13.70;90.80
46085;DHT22;31823;47.032;8.310;2023-02-20T16:00:53;13.30;91.20
46085;DHT22;31823;47.032;8.310;2023-02-20T16:03:23;13.30;92.50
46085;DHT22;31823;47.032;8.310;2023-02-20T16:05:50;13.30;92.20
46085;DHT22;31823;47.032;8.310;2023-02-20T16:08:16;13.10;92.90
46085;DHT22;31823;47.032;8.310;2023-02-20T16:10:41;13.10;93.80
46085;DHT22;31823;47.032;8.310;2023-02-20T16:15:56;12.20;97.10
46085;DHT22;31823;47.032;8.310;2023-02-20T16:18:21;11.60;98.60
46085;DHT22;31823;47.032;8.310;2023-02-20T16:20:48;11.30;99.90
46085;DHT22;31823;47.032;8.310;2023-02-20T16:23:14;11.20;99.90
46085;DHT22;31823;47.032;8.310;2023-02-20T16:25:40;10.90;99.90
46085;DHT22;31823;47.032;8.310;2023-02-20T16:28:06;10.80;99.90
46085;DHT22;31823;47.032;8.310;2023-02-20T16:30:34;10.50;99.90
46085;DHT22;31823;47.032;8.310;2023-02-20T16:33:08;10.30;99.90
46085;DHT22;31823;47.032;8.310;2023-02-20T16:35:35;10.40;99.90
46085;DHT22;31823;47.032;8.310;2023-02-20T16:38:00;10.30;99.90
46085;DHT22;31823;47.032;8.310;2023-02-20T16:40:26;10.10;99.90
46085;DHT22;31823;47.032;8.310;2023-02-20T16:42:52;9.90;99.90
46085;DHT22;31823;47.032;8.310;2023-02-20T16:45:18;9.80;99.90
46085;DHT22;31823;47.032;8.310;2023-02-20T16:47:49;9.80;99.90
46085;DHT22;31823;47.032;8.310;2023-02-20T16:50:16;9.60;99.90
46085;DHT22;31823;47.032;8.310;2023-02-20T16:52:45;9.40;99.90
46085;DHT22;31823;47.032;8.310;2023-02-20T16:57:42;9.20;99.90
46085;DHT22;31823;47.032;8.310;2023-02-20T17:00:08;9.20;99.90
46085;DHT22;31823;47.032;8.310;2023-02-20T17:02:34;9.10;99.90
46085;DHT22;31823;47.032;8.310;2023-02-20T17:05:00;9.00;99.90
46085;DHT22;31823;47.032;8.310;2023-02-20T17:07:26;8.90;99.90
46085;DHT22;31823;47.032;8.310;2023-02-20T17:09:52;8.80;99.90
46085;DHT22;31823;47.032;8.310;2023-02-20T17:12:20;8.80;99.90
46085;DHT22;31823;47.032;8.310;2023-02-20T17:14:46;8.60;99.90
46085;DHT22;31823;47.032;8.310;2023-02-20T17:17:13;8.50;99.90
46085;DHT22;31823;47.032;8.310;2023-02-20T17:19:40;8.40;99.90
46085;DHT22;31823;47.032;8.310;2023-02-20T17:22:06;8.30;99.90
46085;DHT22;31823;47.032;8.310;2023-02-20T17:24:32;8.30;99.90
46085;DHT22;31823;47.032;8.310;2023-02-20T17:26:59;8.30;99.90
46085;DHT22;31823;47.032;8.310;2023-02-20T17:29:25;8.20;99.90
46085;DHT22;31823;47.032;8.310;2023-02-20T17:31:52;8.20;99.90
46085;DHT22;31823;47.032;8.310;2023-02-20T17:34:17;8.20;99.90
46085;DHT22;31823;47.032;8.310;2023-02-20T17:36:43;8.10;99.90
46085;DHT22;31823;47.032;8.310;2023-02-20T17:39:18;8.00;99.90
46085;DHT22;31823;47.032;8.310;2023-02-20T17:41:44;7.90;99.90
46085;DHT22;31823;47.032;8.310;2023-02-20T17:44:11;7.90;99.90
46085;DHT22;31823;47.032;8.310;2023-02-20T17:46:36;7.90;99.90
46085;DHT22;31823;47.032;8.310;2023-02-20T17:49:02;7.80;99.90
46085;DHT22;31823;47.032;8.310;2023-02-20T17:51:27;7.70;99.90
46085;DHT22;31823;47.032;8.310;2023-02-20T17:53:53;7.70;99.90
46085;DHT22;31823;47.032;8.310;2023-02-20T17:56:18;7.60;99.90
46085;DHT22;31823;47.032;8.310;2023-02-20T17:58:44;7.60;99.90
46085;DHT22;31823;47.032;8.310;2023-02-20T18:01:11;7.50;99.90
46085;DHT22;31823;47.032;8.310;2023-02-20T18:03:36;7.40;99.90
46085;DHT22;31823;47.032;8.310;2023-02-20T18:06:02;7.40;99.90
46085;DHT22;31823;47.032;8.310;2023-02-20T18:08:28;7.40;99.90
46085;DHT22;31823;47.032;8.310;2023-02-20T18:10:54;7.40;99.90
46085;DHT22;31823;47.032;8.310;2023-02-20T18:13:20;7.40;99.90
46085;DHT22;31823;47.032;8.310;2023-02-20T18:15:46;7.30;99.90
46085;DHT22;31823;47.032;8.310;2023-02-20T18:18:12;7.20;99.90
46085;DHT22;31823;47.032;8.310;2023-02-20T18:20:38;7.10;99.90
46085;DHT22;31823;47.032;8.310;2023-02-20T18:23:03;6.90;99.90